Time;durP1;ratioP1;P1;durP2;ratioP2;P2;SDS_P1;SDS_P2;PMS_P1;PMS_P2;Temp;Humidity;BMP_temperature;BMP_pressure;BME280_temperature;BME280_humidity;BME280_pressure;Samples;Min_cycle;Max_cycle;Signal;HPM_P1;HPM_P2
2022/11/27 00:00:20;;;;;;;59.20;27.63;;;;;;;;;;5058181;28;20105;-79
2022/11/27 00:02:45;;;;;;;60.58;28.23;;;;;;;;;;5075998;28;20032;-79
2022/11/27 00:05:10;;;;;;;59.20;27.65;;;;;;;;;;5075949;28;20039;-79
2022/11/27 00:07:36;;;;;;;61.50;28.30;;;;;;;;;;5076090;28;20040;-79
2022/11/27 00:10:02;;;;;;;56.38;27.95;;;;;;;;;;5076190;28;20051;-79
2022/11/27 00:12:27;;;;;;;66.10;31.15;;;;;;;;;;5057964;28;20025;-79
2022/11/27 00:14:52;;;;;;;65.18;28.98;;;;;;;;;;5041258;28;20032;-79
2022/11/27 00:17:18;;;;;;;51.80;22.98;;;;;;;;;;5075682;28;20125;-79
2022/11/27 00:19:43;;;;;;;43.08;20.45;;;;;;;;;;5075563;28;20378;-78
2022/11/27 00:22:09;;;;;;;45.30;20.17;;;;;;;;;;5024651;28;20036;-79
2022/11/27 00:24:34;;;;;;;43.05;20.52;;;;;;;;;;5040741;28;20112;-79
2022/11/27 00:27:00;;;;;;;45.38;20.50;;;;;;;;;;5057763;28;20362;-78
2022/11/27 00:29:28;;;;;;;44.78;20.35;;;;;;;;;;5075575;28;20465;-79
2022/11/27 00:31:54;;;;;;;42.80;19.50;;;;;;;;;;5075694;28;20026;-79
2022/11/27 00:34:20;;;;;;;50.80;20.98;;;;;;;;;;5075706;28;20101;-79
2022/11/27 00:36:45;;;;;;;45.70;20.58;;;;;;;;;;5075406;28;20433;-79
2022/11/27 00:39:10;;;;;;;41.10;20.92;;;;;;;;;;5057333;28;20028;-79
2022/11/27 00:41:36;;;;;;;52.03;24.55;;;;;;;;;;5024695;28;20041;-79
2022/11/27 00:44:02;;;;;;;45.13;22.00;;;;;;;;;;5088620;28;20027;-79
2022/11/27 00:46:28;;;;;;;46.08;21.45;;;;;;;;;;5063360;28;20071;-79
2022/11/27 00:48:54;;;;;;;49.65;24.45;;;;;;;;;;5057641;28;20050;-79
2022/11/27 00:51:20;;;;;;;50.88;23.25;;;;;;;;;;5040601;28;20028;-79
2022/11/27 00:53:46;;;;;;;46.80;21.75;;;;;;;;;;5074982;28;20411;-79
2022/11/27 00:56:19;;;;;;;51.90;23.73;;;;;;;;;;5057068;28;20031;-79
2022/11/27 00:58:44;;;;;;;46.10;21.65;;;;;;;;;;5040927;28;20119;-79
2022/11/27 01:01:21;;;;;;;41.63;21.73;;;;;;;;;;5057047;28;20078;-79
2022/11/27 01:03:47;;;;;;;44.67;20.85;;;;;;;;;;5024710;28;20037;-78
2022/11/27 01:06:12;;;;;;;47.55;22.17;;;;;;;;;;5057091;28;20504;-79
2022/11/27 01:08:38;;;;;;;47.15;21.60;;;;;;;;;;5074375;28;20032;-79
2022/11/27 01:11:04;;;;;;;44.90;21.63;;;;;;;;;;5057310;28;20031;-79
2022/11/27 01:13:34;;;;;;;44.35;20.98;;;;;;;;;;5056889;28;20024;-79
2022/11/27 01:16:00;;;;;;;;;;;;;;;;;;5024604;28;20072;-79
2022/11/27 01:18:26;;;;;;;45.67;20.55;;;;;;;;;;5056640;28;19912;-79
2022/11/27 01:20:52;;;;;;;49.22;20.58;;;;;;;;;;5023508;28;20362;-79
2022/11/27 01:23:17;;;;;;;42.88;20.90;;;;;;;;;;5040095;28;20024;-78
2022/11/27 01:25:43;;;;;;;41.60;20.75;;;;;;;;;;5056702;28;20082;-79
2022/11/27 01:28:08;;;;;;;43.40;19.67;;;;;;;;;;5056407;28;20529;-79
2022/11/27 01:30:36;;;;;;;41.70;19.70;;;;;;;;;;5039784;28;20107;-79
2022/11/27 01:33:02;;;;;;;44.50;21.10;;;;;;;;;;5056507;28;20078;-79
2022/11/27 01:35:27;;;;;;;49.45;21.17;;;;;;;;;;5039889;28;20032;-78
2022/11/27 01:37:52;;;;;;;49.85;21.55;;;;;;;;;;5056368;28;20465;-78
2022/11/27 01:40:18;;;;;;;46.58;22.02;;;;;;;;;;5074089;28;20027;-78
2022/11/27 01:42:43;;;;;;;46.75;20.85;;;;;;;;;;5074114;28;20481;-79
2022/11/27 01:45:09;;;;;;;46.75;22.65;;;;;;;;;;5039467;28;20535;-78
2022/11/27 01:47:38;;;;;;;41.60;22.08;;;;;;;;;;5023444;28;20036;-78
2022/11/27 01:50:20;;;;;;;54.20;23.73;;;;;;;;;;5023351;28;20135;-78
2022/11/27 01:52:48;;;;;;;49.70;22.90;;;;;;;;;;5056050;28;20115;-78
2022/11/27 01:55:20;;;;;;;45.58;22.77;;;;;;;;;;5055985;28;20043;-79
2022/11/27 01:58:13;;;;;;;49.85;21.83;;;;;;;;;;5055934;28;20369;-78
2022/11/27 02:00:38;;;;;;;46.13;21.95;;;;;;;;;;5041979;28;20043;-78
2022/11/27 02:03:04;;;;;;;41.85;19.75;;;;;;;;;;5056125;28;20020;-79
2022/11/27 02:05:29;;;;;;;44.35;20.75;;;;;;;;;;5039121;28;20365;-79
2022/11/27 02:07:56;;;;;;;40.47;19.80;;;;;;;;;;5055230;28;20097;-79
2022/11/27 02:10:24;;;;;;;41.90;20.33;;;;;;;;;;5023091;28;20033;-78
2022/11/27 02:13:06;;;;;;;40.90;19.77;;;;;;;;;;5039618;28;20338;-78
2022/11/27 02:15:41;;;;;;;47.60;19.08;;;;;;;;;;5040494;28;20116;-78
2022/11/27 02:18:06;;;;;;;41.58;19.02;;;;;;;;;;5055886;28;20028;-78
2022/11/27 02:20:41;;;;;;;54.75;20.00;;;;;;;;;;5073786;28;20020;-77
2022/11/27 02:23:18;;;;;;;43.92;19.98;;;;;;;;;;5073722;28;20029;-79
2022/11/27 02:26:11;;;;;;;43.22;20.35;;;;;;;;;;5073736;28;20025;-79
2022/11/27 02:28:55;;;;;;;47.03;20.40;;;;;;;;;;5073696;28;20446;-78
2022/11/27 02:31:24;;;;;;;40.28;19.60;;;;;;;;;;5073522;28;20037;-79
2022/11/27 02:33:52;;;;;;;41.67;19.45;;;;;;;;;;5022885;28;20157;-78
2022/11/27 02:36:23;;;;;;;40.55;19.85;;;;;;;;;;5056135;28;20628;-79
2022/11/27 02:39:17;;;;;;;45.53;22.35;;;;;;;;;;5057223;28;20024;-78
2022/11/27 02:41:53;;;;;;;45.95;21.45;;;;;;;;;;5054555;28;20470;-79
2022/11/27 02:44:18;;;;;;;50.35;22.83;;;;;;;;;;5022943;28;20041;-79
2022/11/27 02:46:44;;;;;;;47.67;22.77;;;;;;;;;;5038730;28;20044;-78
2022/11/27 02:49:11;;;;;;;48.42;22.42;;;;;;;;;;5038746;28;20029;-79
2022/11/27 02:51:39;;;;;;;47.17;24.10;;;;;;;;;;5039177;28;20040;-78
2022/11/27 02:54:06;;;;;;;49.95;24.27;;;;;;;;;;5022213;28;20036;-79
2022/11/27 02:56:32;;;;;;;55.40;26.92;;;;;;;;;;5038953;28;20500;-78
2022/11/27 02:59:00;;;;;;;57.50;27.52;;;;;;;;;;5055698;28;20060;-79
2022/11/27 03:01:31;;;;;;;55.00;27.52;;;;;;;;;;5039539;28;20024;-78
2022/11/27 03:03:57;;;;;;;51.67;26.73;;;;;;;;;;5038735;28;20105;-79
2022/11/27 03:06:42;;;;;;;52.47;25.73;;;;;;;;;;5038840;28;20065;-79
2022/11/27 03:09:10;;;;;;;53.53;25.50;;;;;;;;;;5056082;28;20131;-79
2022/11/27 03:11:35;;;;;;;51.78;25.42;;;;;;;;;;5042551;28;20089;-78
2022/11/27 03:14:03;;;;;;;52.95;24.58;;;;;;;;;;5059197;28;20428;-78
2022/11/27 03:16:50;;;;;;;48.45;23.13;;;;;;;;;;5042537;28;20031;-78
2022/11/27 03:19:37;;;;;;;55.80;23.98;;;;;;;;;;5059039;28;20029;-78
2022/11/27 03:22:03;;;;;;;50.83;21.67;;;;;;;;;;5076980;28;20052;-78
2022/11/27 03:24:29;;;;;;;46.25;22.45;;;;;;;;;;5059010;28;20391;-78
2022/11/27 03:26:57;;;;;;;48.08;22.75;;;;;;;;;;5025790;28;20029;-78
2022/11/27 03:29:43;;;;;;;46.75;22.38;;;;;;;;;;5042193;28;20039;-78
2022/11/27 03:32:08;;;;;;;47.00;21.63;;;;;;;;;;5037305;28;20148;-78
2022/11/27 03:34:34;;;;;;;44.05;21.20;;;;;;;;;;5042175;28;20501;-78
2022/11/27 03:36:59;;;;;;;42.17;20.67;;;;;;;;;;5042114;28;20047;-78
2022/11/27 03:39:25;;;;;;;45.25;21.75;;;;;;;;;;5042145;28;20017;-78
2022/11/27 03:41:50;;;;;;;43.50;21.25;;;;;;;;;;5042078;28;20095;-77
2022/11/27 03:44:19;;;;;;;41.22;20.40;;;;;;;;;;5058850;28;20476;-78
2022/11/27 03:46:53;;;;;;;43.60;20.42;;;;;;;;;;5076185;28;20044;-78
2022/11/27 03:49:19;;;;;;;44.90;20.27;;;;;;;;;;5059147;28;20047;-78
2022/11/27 03:51:57;;;;;;;44.40;20.85;;;;;;;;;;5078689;28;20032;-78
2022/11/27 03:55:01;;;;;;;49.20;21.73;;;;;;;;;;5028597;28;20148;-78
2022/11/27 03:57:46;;;;;;;44.20;21.73;;;;;;;;;;5028139;28;20139;-78
2022/11/27 04:00:12;;;;;;;47.65;21.63;;;;;;;;;;5041813;28;20123;-79
2022/11/27 04:02:46;;;;;;;45.78;20.95;;;;;;;;;;5041811;28;20064;-79
2022/11/27 04:05:12;;;;;;;48.67;22.75;;;;;;;;;;5041952;28;20033;-78
2022/11/27 04:07:38;;;;;;;41.13;19.90;;;;;;;;;;5041536;28;20081;-77
2022/11/27 04:10:04;;;;;;;43.22;20.08;;;;;;;;;;5058018;28;20036;-79
2022/11/27 04:12:29;;;;;;;40.92;20.80;;;;;;;;;;5041360;28;20369;-78
2022/11/27 04:14:55;;;;;;;42.53;21.60;;;;;;;;;;5057477;28;20036;-77
2022/11/27 04:17:20;;;;;;;43.00;21.35;;;;;;;;;;5041347;28;20113;-78
2022/11/27 04:19:45;;;;;;;46.10;22.63;;;;;;;;;;5075661;28;20029;-78
2022/11/27 04:22:11;;;;;;;46.65;22.13;;;;;;;;;;5040324;28;20062;-79
2022/11/27 04:24:36;;;;;;;48.70;23.73;;;;;;;;;;5057677;28;20024;-78
2022/11/27 04:27:02;;;;;;;46.90;23.83;;;;;;;;;;5075807;28;20473;-78
2022/11/27 04:29:27;;;;;;;48.20;24.50;;;;;;;;;;5075914;28;20480;-78
2022/11/27 04:31:53;;;;;;;51.63;23.42;;;;;;;;;;5057545;28;20039;-77
2022/11/27 04:34:18;;;;;;;48.63;24.30;;;;;;;;;;5075308;28;20043;-77
2022/11/27 04:36:45;;;;;;;50.00;24.55;;;;;;;;;;5075408;28;20123;-78
2022/11/27 04:39:12;;;;;;;51.95;24.77;;;;;;;;;;5057703;28;20043;-78
2022/11/27 04:41:37;;;;;;;53.28;25.92;;;;;;;;;;5075355;28;20381;-79
2022/11/27 04:44:03;;;;;;;51.42;25.35;;;;;;;;;;5057488;28;20028;-78
2022/11/27 04:46:28;;;;;;;52.40;24.85;;;;;;;;;;5057302;28;20427;-79
2022/11/27 04:48:54;;;;;;;54.92;26.05;;;;;;;;;;5057537;28;20027;-79
2022/11/27 04:51:19;;;;;;;54.47;26.52;;;;;;;;;;5075115;28;20035;-78
2022/11/27 04:53:44;;;;;;;54.10;26.30;;;;;;;;;;5075260;28;20082;-77
2022/11/27 04:56:10;;;;;;;56.38;26.05;;;;;;;;;;5057198;28;20067;-78
2022/11/27 04:58:35;;;;;;;57.08;25.85;;;;;;;;;;5074652;28;20032;-78
2022/11/27 05:01:01;;;;;;;54.83;25.20;;;;;;;;;;5057062;28;20028;-78
2022/11/27 05:03:26;;;;;;;52.78;25.77;;;;;;;;;;5074813;28;20079;-78
2022/11/27 05:05:55;;;;;;;54.60;26.20;;;;;;;;;;5075085;28;20033;-78
2022/11/27 05:08:21;;;;;;;53.45;25.55;;;;;;;;;;5074799;28;20028;-78
2022/11/27 05:10:58;;;;;;;50.65;26.08;;;;;;;;;;5057128;28;20106;-79
2022/11/27 05:13:23;;;;;;;55.00;27.20;;;;;;;;;;5056924;28;20158;-79
2022/11/27 05:15:49;;;;;;;54.50;26.33;;;;;;;;;;5056756;28;20063;-79
2022/11/27 05:18:14;;;;;;;56.58;28.00;;;;;;;;;;5074776;28;20457;-79
2022/11/27 05:20:39;;;;;;;58.55;28.15;;;;;;;;;;5056683;28;20366;-79
2022/11/27 05:23:05;;;;;;;60.03;29.73;;;;;;;;;;5056510;28;20432;-78
2022/11/27 05:25:30;;;;;;;65.07;29.25;;;;;;;;;;5074407;28;20434;-79
2022/11/27 05:27:56;;;;;;;61.90;30.02;;;;;;;;;;5074070;28;20509;-78
2022/11/27 05:30:21;;;;;;;64.55;32.58;;;;;;;;;;5075667;28;20111;-79
2022/11/27 05:32:46;;;;;;;60.70;30.42;;;;;;;;;;5057989;28;20373;-78
2022/11/27 05:35:12;;;;;;;68.07;33.88;;;;;;;;;;5074066;28;20446;-79
2022/11/27 05:37:37;;;;;;;62.38;31.30;;;;;;;;;;5056418;28;20389;-79
2022/11/27 05:40:03;;;;;;;62.65;31.45;;;;;;;;;;5074180;28;20021;-79
2022/11/27 05:42:29;;;;;;;66.53;34.50;;;;;;;;;;5055811;28;20450;-78
2022/11/27 05:44:54;;;;;;;66.50;32.55;;;;;;;;;;5074016;28;20052;-78
2022/11/27 05:47:19;;;;;;;70.05;34.42;;;;;;;;;;5074084;28;20028;-78
2022/11/27 05:49:45;;;;;;;72.13;35.85;;;;;;;;;;5056263;28;20048;-77
2022/11/27 05:52:12;;;;;;;70.43;36.35;;;;;;;;;;5074287;28;20404;-78
2022/11/27 05:54:37;;;;;;;74.18;37.25;;;;;;;;;;5039541;28;20040;-79
2022/11/27 05:57:03;;;;;;;83.25;37.85;;;;;;;;;;5073704;28;20446;-79
2022/11/27 05:59:28;;;;;;;81.65;39.60;;;;;;;;;;5039680;28;20438;-79
2022/11/27 06:01:53;;;;;;;79.97;38.65;;;;;;;;;;5039330;28;20024;-78
2022/11/27 06:04:19;;;;;;;87.82;42.63;;;;;;;;;;5073883;28;20016;-78
2022/11/27 06:06:44;;;;;;;81.68;38.83;;;;;;;;;;5074093;28;20025;-79
2022/11/27 06:09:10;;;;;;;80.20;39.60;;;;;;;;;;5039319;28;20135;-78
2022/11/27 06:11:35;;;;;;;71.90;35.97;;;;;;;;;;5073924;28;20113;-79
2022/11/27 06:14:00;;;;;;;65.53;31.88;;;;;;;;;;5055917;28;20043;-78
2022/11/27 06:16:26;;;;;;;95.55;49.15;;;;;;;;;;5039331;28;20032;-78
2022/11/27 06:18:53;;;;;;;84.03;42.63;;;;;;;;;;5056074;28;20032;-79
2022/11/27 06:21:18;;;;;;;81.53;41.70;;;;;;;;;;5039214;28;20044;-79
2022/11/27 06:23:44;;;;;;;133.80;68.40;;;;;;;;;;5022908;28;20115;-79
2022/11/27 06:26:18;;;;;;;80.53;41.55;;;;;;;;;;5039027;28;20024;-78
2022/11/27 06:28:43;;;;;;;59.58;30.17;;;;;;;;;;5039257;28;20031;-77
2022/11/27 06:31:13;;;;;;;55.60;28.40;;;;;;;;;;5055870;28;20365;-79
2022/11/27 06:33:39;;;;;;;50.30;25.95;;;;;;;;;;5039279;28;20028;-79
2022/11/27 06:36:05;;;;;;;46.72;25.25;;;;;;;;;;5023190;28;20031;-79
2022/11/27 06:38:31;;;;;;;55.00;25.08;;;;;;;;;;5055796;28;20087;-79
2022/11/27 06:41:02;;;;;;;50.13;25.65;;;;;;;;;;5055701;28;20444;-79
2022/11/27 06:43:27;;;;;;;63.35;27.40;;;;;;;;;;5055726;28;20115;-79
2022/11/27 06:45:59;;;;;;;63.47;26.88;;;;;;;;;;5042470;28;20148;-79
2022/11/27 06:48:24;;;;;;;51.50;24.20;;;;;;;;;;5043088;28;20458;-79
2022/11/27 06:50:50;;;;;;;50.65;24.55;;;;;;;;;;5059590;28;20074;-79
2022/11/27 06:53:15;;;;;;;53.90;24.60;;;;;;;;;;5076827;28;20083;-78
2022/11/27 06:55:41;;;;;;;52.55;25.33;;;;;;;;;;5077553;28;20116;-79
2022/11/27 06:58:06;;;;;;;61.15;29.02;;;;;;;;;;5052367;28;20032;-79
2022/11/27 07:00:31;;;;;;;66.00;32.17;;;;;;;;;;5065515;28;20115;-79
2022/11/27 07:02:57;;;;;;;61.08;31.40;;;;;;;;;;5042653;28;20178;-79
2022/11/27 07:05:22;;;;;;;74.15;38.72;;;;;;;;;;5077175;28;20028;-78
2022/11/27 07:07:48;;;;;;;73.68;38.38;;;;;;;;;;5042988;28;20035;-79
2022/11/27 07:10:13;;;;;;;59.30;28.23;;;;;;;;;;5076711;28;20024;-79
2022/11/27 07:12:39;;;;;;;50.92;25.30;;;;;;;;;;5059047;28;20024;-79
2022/11/27 07:15:05;;;;;;;49.20;23.45;;;;;;;;;;5076928;28;20029;-79
2022/11/27 07:17:30;;;;;;;46.80;22.95;;;;;;;;;;5077356;28;20090;-78
2022/11/27 07:19:56;;;;;;;50.05;22.30;;;;;;;;;;5042626;28;20028;-79
2022/11/27 07:22:21;;;;;;;40.58;21.48;;;;;;;;;;5025851;28;20032;-79
2022/11/27 07:24:46;;;;;;;43.88;21.38;;;;;;;;;;5041929;28;20036;-78
2022/11/27 07:27:12;;;;;;;45.47;21.95;;;;;;;;;;5059051;28;20031;-79
2022/11/27 07:29:37;;;;;;;47.83;22.52;;;;;;;;;;5076657;28;20051;-80
2022/11/27 07:32:03;;;;;;;49.75;25.80;;;;;;;;;;5042094;28;20028;-78
2022/11/27 07:34:28;;;;;;;82.13;46.28;;;;;;;;;;5041996;28;20032;-78
2022/11/27 07:36:53;;;;;;;71.90;38.45;;;;;;;;;;5025745;28;20134;-77
2022/11/27 07:39:19;;;;;;;62.47;32.65;;;;;;;;;;5041915;28;20135;-78
2022/11/27 07:41:44;;;;;;;51.78;26.13;;;;;;;;;;5041914;28;20029;-77
2022/11/27 07:44:10;;;;;;;109.90;48.58;;;;;;;;;;5058749;28;20059;-80
2022/11/27 07:46:35;;;;;;;55.60;27.70;;;;;;;;;;5076218;28;20066;-78
2022/11/27 07:49:01;;;;;;;53.08;23.92;;;;;;;;;;5076301;28;20025;-79
2022/11/27 07:51:26;;;;;;;60.25;30.80;;;;;;;;;;5076352;28;20029;-79
2022/11/27 07:53:52;;;;;;;59.28;31.85;;;;;;;;;;5057938;28;20031;-78
2022/11/27 07:56:17;;;;;;;51.65;25.45;;;;;;;;;;5057408;28;20036;-79
2022/11/27 07:58:43;;;;;;;43.97;21.75;;;;;;;;;;5058653;28;20024;-78
2022/11/27 08:01:10;;;;;;;43.88;22.23;;;;;;;;;;5041736;28;20483;-78
2022/11/27 08:03:35;;;;;;;44.63;22.58;;;;;;;;;;5058270;28;20028;-78
2022/11/27 08:06:01;;;;;;;42.38;21.33;;;;;;;;;;5058232;28;20111;-78
2022/11/27 08:08:26;;;;;;;48.33;22.20;;;;;;;;;;5075705;28;21003;-79
2022/11/27 08:10:51;;;;;;;38.58;20.55;;;;;;;;;;5075935;28;20404;-79
2022/11/27 08:13:17;;;;;;;44.78;23.02;;;;;;;;;;5076056;28;20025;-78
2022/11/27 08:15:42;;;;;;;51.38;25.92;;;;;;;;;;5075856;28;20029;-79
2022/11/27 08:18:08;;;;;;;47.08;23.55;;;;;;;;;;5075767;28;20032;-78
2022/11/27 08:20:33;;;;;;;41.65;21.45;;;;;;;;;;5042379;28;20032;-78
2022/11/27 08:22:59;;;;;;;45.53;22.30;;;;;;;;;;5041211;28;20054;-78
2022/11/27 08:25:24;;;;;;;52.17;23.60;;;;;;;;;;5057797;28;20040;-78
2022/11/27 08:27:50;;;;;;;47.40;23.70;;;;;;;;;;5057633;28;20028;-78
2022/11/27 08:30:15;;;;;;;75.90;37.38;;;;;;;;;;5057606;28;20523;-78
2022/11/27 08:32:41;;;;;;;53.50;26.55;;;;;;;;;;5041033;28;20438;-78
2022/11/27 08:35:07;;;;;;;52.65;26.45;;;;;;;;;;5075391;28;20072;-82
2022/11/27 08:37:33;;;;;;;91.05;28.02;;;;;;;;;;5075110;28;20059;-79
2022/11/27 08:39:58;;;;;;;68.80;28.05;;;;;;;;;;5040936;28;20028;-77
2022/11/27 08:42:24;;;;;;;57.13;24.98;;;;;;;;;;5075976;28;20373;-78
2022/11/27 08:44:49;;;;;;;54.53;26.45;;;;;;;;;;5041015;28;20442;-79
2022/11/27 08:47:15;;;;;;;53.55;27.55;;;;;;;;;;5075156;28;20033;-79
2022/11/27 08:49:42;;;;;;;52.78;26.13;;;;;;;;;;5040889;28;20056;-79
2022/11/27 08:52:08;;;;;;;50.60;26.27;;;;;;;;;;5057119;28;20555;-79
2022/11/27 08:54:33;;;;;;;57.13;29.63;;;;;;;;;;5024188;28;20048;-79
2022/11/27 08:56:59;;;;;;;54.08;28.10;;;;;;;;;;5057180;28;20063;-78
2022/11/27 08:59:24;;;;;;;56.08;26.42;;;;;;;;;;5074838;28;20024;-77
2022/11/27 09:01:50;;;;;;;58.65;28.30;;;;;;;;;;5075001;28;20078;-78
2022/11/27 09:04:15;;;;;;;56.83;29.02;;;;;;;;;;5074953;28;20455;-78
2022/11/27 09:06:41;;;;;;;65.25;32.80;;;;;;;;;;5074399;28;20358;-78
2022/11/27 09:09:07;;;;;;;72.70;36.28;;;;;;;;;;5075148;28;20630;-78
2022/11/27 09:11:34;;;;;;;73.28;37.35;;;;;;;;;;5040804;28;20457;-78
2022/11/27 09:14:00;;;;;;;79.47;40.00;;;;;;;;;;5040396;28;20071;-78
2022/11/27 09:16:25;;;;;;;77.45;40.45;;;;;;;;;;5023851;28;20068;-78
2022/11/27 09:18:51;;;;;;;85.53;41.13;;;;;;;;;;5056816;28;20035;-78
2022/11/27 09:21:20;;;;;;;76.05;36.90;;;;;;;;;;5074853;28;20436;-78
2022/11/27 09:23:45;;;;;;;78.88;36.97;;;;;;;;;;5040115;28;20036;-78
2022/11/27 09:26:13;;;;;;;78.97;41.35;;;;;;;;;;5040101;28;20028;-79
2022/11/27 09:28:39;;;;;;;91.63;41.25;;;;;;;;;;5040299;28;20029;-79
2022/11/27 09:31:08;;;;;;;80.55;36.17;;;;;;;;;;5040007;28;20031;-79
2022/11/27 09:33:35;;;;;;;71.45;33.03;;;;;;;;;;5023952;28;20032;-79
2022/11/27 09:36:05;;;;;;;65.00;33.70;;;;;;;;;;5023398;28;20028;-79
2022/11/27 09:38:31;;;;;;;68.97;32.92;;;;;;;;;;5056586;28;20021;-79
2022/11/27 09:40:59;;;;;;;67.63;33.45;;;;;;;;;;5056493;28;20082;-79
2022/11/27 09:43:30;;;;;;;64.72;31.65;;;;;;;;;;5040107;28;20025;-79
2022/11/27 09:45:59;;;;;;;68.95;31.65;;;;;;;;;;5040484;28;20056;-79
2022/11/27 09:48:51;;;;;;;59.85;29.50;;;;;;;;;;5023882;28;20029;-79
2022/11/27 09:51:32;;;;;;;57.47;28.25;;;;;;;;;;5053659;28;20458;-79
2022/11/27 09:54:03;;;;;;;51.75;27.27;;;;;;;;;;5057217;28;20040;-79
2022/11/27 09:56:28;;;;;;;;;;;;;;;;;;5057719;28;20032;-80
2022/11/27 09:58:58;;;;;;;48.28;25.58;;;;;;;;;;5039637;28;20310;-79
2022/11/27 10:01:26;;;;;;;54.67;27.67;;;;;;;;;;5057310;28;20075;-80
2022/11/27 10:03:52;;;;;;;58.15;28.67;;;;;;;;;;5023250;28;20959;-79
2022/11/27 10:06:55;;;;;;;53.17;27.23;;;;;;;;;;5045505;28;20028;-79
2022/11/27 10:09:39;;;;;;;53.22;26.23;;;;;;;;;;5042909;28;20092;-79
2022/11/27 10:12:07;;;;;;;51.00;25.95;;;;;;;;;;5074173;28;20025;-80
2022/11/27 10:14:56;;;;;;;52.72;27.08;;;;;;;;;;5056055;28;20037;-79
2022/11/27 10:17:34;;;;;;;51.08;27.38;;;;;;;;;;5073721;28;20028;-79
2022/11/27 10:20:15;;;;;;;52.20;26.88;;;;;;;;;;5022849;28;20097;-79
2022/11/27 10:22:52;;;;;;;;;;;;;;;;;;5056277;28;20089;-79
2022/11/27 10:25:28;;;;;;;53.00;25.52;;;;;;;;;;5073758;28;19930;-79
2022/11/27 10:27:57;;;;;;;47.13;23.02;;;;;;;;;;5039782;28;20438;-80
2022/11/27 10:30:22;;;;;;;55.80;27.02;;;;;;;;;;5074067;28;20029;-79
2022/11/27 10:32:49;;;;;;;51.40;24.98;;;;;;;;;;5039187;28;20111;-79
2022/11/27 10:35:16;;;;;;;49.95;26.77;;;;;;;;;;5056066;28;20040;-78
2022/11/27 10:38:12;;;;;;;52.28;26.52;;;;;;;;;;5039414;28;20125;-80
2022/11/27 10:40:59;;;;;;;47.60;24.38;;;;;;;;;;5025298;28;20434;-79
2022/11/27 10:43:24;;;;;;;45.20;24.25;;;;;;;;;;5073611;28;20036;-79
2022/11/27 10:45:55;;;;;;;49.75;26.58;;;;;;;;;;5038770;28;20052;-79
2022/11/27 10:48:20;;;;;;;50.10;26.05;;;;;;;;;;5055312;28;20020;-79
2022/11/27 10:50:46;;;;;;;49.25;26.30;;;;;;;;;;5039368;28;20389;-79
2022/11/27 10:53:25;;;;;;;52.45;26.33;;;;;;;;;;5039076;28;20033;-79
2022/11/27 10:56:16;;;;;;;47.88;25.52;;;;;;;;;;5055874;28;20040;-80
2022/11/27 10:58:46;;;;;;;49.40;24.95;;;;;;;;;;5055597;28;20075;-79
2022/11/27 11:01:13;;;;;;;45.42;24.15;;;;;;;;;;5055233;28;20115;-79
2022/11/27 11:03:38;;;;;;;51.70;25.15;;;;;;;;;;5073373;28;20033;-79
2022/11/27 11:06:07;;;;;;;44.30;24.58;;;;;;;;;;5055341;28;20025;-79
2022/11/27 11:08:33;;;;;;;49.90;25.42;;;;;;;;;;5055957;28;20085;-79
2022/11/27 11:11:03;;;;;;;52.05;26.08;;;;;;;;;;5055766;28;20024;-79
2022/11/27 11:13:30;;;;;;;49.42;25.60;;;;;;;;;;5075381;28;20025;-79
2022/11/27 11:16:29;;;;;;;55.13;25.35;;;;;;;;;;5073297;28;20477;-79
2022/11/27 11:18:54;;;;;;;61.00;27.45;;;;;;;;;;5022722;28;20044;-79
2022/11/27 11:21:34;;;;;;;51.25;26.38;;;;;;;;;;5055310;28;20029;-79
2022/11/27 11:24:22;;;;;;;46.50;24.52;;;;;;;;;;5038793;28;20029;-79
2022/11/27 11:26:49;;;;;;;47.53;23.55;;;;;;;;;;5073040;28;20039;-79
2022/11/27 11:29:46;;;;;;;47.70;23.90;;;;;;;;;;5055163;28;20048;-78
2022/11/27 11:32:34;;;;;;;50.30;24.95;;;;;;;;;;5050726;28;20144;-79
2022/11/27 11:35:23;;;;;;;46.45;23.63;;;;;;;;;;5026655;28;20032;-79
2022/11/27 11:37:48;;;;;;;48.13;24.73;;;;;;;;;;5061468;28;20028;-78
2022/11/27 11:40:13;;;;;;;50.83;26.55;;;;;;;;;;5058689;28;20446;-79
2022/11/27 11:42:53;;;;;;;54.38;26.23;;;;;;;;;;5076450;28;20513;-79
2022/11/27 11:45:19;;;;;;;50.88;27.15;;;;;;;;;;5041647;28;20374;-79
2022/11/27 11:47:46;;;;;;;49.35;24.67;;;;;;;;;;5058598;28;20048;-79
2022/11/27 11:50:40;;;;;;;56.72;26.48;;;;;;;;;;5041926;28;20028;-79
2022/11/27 11:53:23;;;;;;;54.65;26.27;;;;;;;;;;5051332;28;20132;-79
2022/11/27 11:56:07;;;;;;;51.58;25.42;;;;;;;;;;5058572;28;20036;-79
2022/11/27 11:58:40;;;;;;;49.10;25.30;;;;;;;;;;5058571;28;20438;-79
2022/11/27 12:01:23;;;;;;;47.80;24.63;;;;;;;;;;5057998;28;20442;-79
2022/11/27 12:04:06;;;;;;;47.95;25.33;;;;;;;;;;5076166;28;20063;-78
2022/11/27 12:06:58;;;;;;;51.28;25.85;;;;;;;;;;5058172;28;20031;-79
2022/11/27 12:09:26;;;;;;;49.72;24.17;;;;;;;;;;5058132;28;20031;-78
2022/11/27 12:12:03;;;;;;;43.88;24.65;;;;;;;;;;5076058;28;20063;-80
2022/11/27 12:15:23;;;;;;;46.97;24.80;;;;;;;;;;5042147;28;20043;-79
2022/11/27 12:18:00;;;;;;;48.08;24.20;;;;;;;;;;5014556;28;20491;-79
2022/11/27 12:20:46;;;;;;;47.53;24.15;;;;;;;;;;5075930;28;20036;-80
2022/11/27 12:23:32;;;;;;;48.42;25.13;;;;;;;;;;5027684;28;20072;-79
2022/11/27 12:25:58;;;;;;;44.95;24.48;;;;;;;;;;5057865;28;20029;-79
2022/11/27 12:28:53;;;;;;;47.72;24.15;;;;;;;;;;5075386;28;20072;-79
2022/11/27 12:31:37;;;;;;;44.83;23.17;;;;;;;;;;5058057;28;20050;-79
2022/11/27 12:34:14;;;;;;;48.90;25.23;;;;;;;;;;5058024;28;20130;-79
2022/11/27 12:36:46;;;;;;;45.50;23.38;;;;;;;;;;5075679;28;20444;-79
2022/11/27 12:39:29;;;;;;;46.95;23.38;;;;;;;;;;5075500;28;20063;-79
2022/11/27 12:42:00;;;;;;;50.90;24.63;;;;;;;;;;5041050;28;20446;-79
2022/11/27 12:44:28;;;;;;;;;;;;;;;;;;5057941;28;20187;-79
2022/11/27 12:47:13;;;;;;;52.60;25.85;;;;;;;;;;5057601;28;19973;-78
2022/11/27 12:49:48;;;;;;;52.97;27.08;;;;;;;;;;5042587;28;20108;-79
2022/11/27 12:52:32;;;;;;;49.88;26.23;;;;;;;;;;5041088;28;20025;-79
2022/11/27 12:55:20;;;;;;;46.78;24.85;;;;;;;;;;5041310;28;20125;-78
2022/11/27 12:57:51;;;;;;;44.25;23.77;;;;;;;;;;5040644;28;20060;-80
2022/11/27 13:00:19;;;;;;;46.53;24.58;;;;;;;;;;5041033;28;20048;-79
2022/11/27 13:02:59;;;;;;;47.50;25.75;;;;;;;;;;5057914;28;20544;-79
2022/11/27 13:05:30;;;;;;;50.17;26.52;;;;;;;;;;5074906;28;20438;-78
2022/11/27 13:08:34;;;;;;;52.45;26.23;;;;;;;;;;5040774;28;20036;-79
2022/11/27 13:11:05;;;;;;;50.42;25.15;;;;;;;;;;5034717;28;20036;-79
2022/11/27 13:13:33;;;;;;;52.20;24.80;;;;;;;;;;5068826;28;20028;-79
2022/11/27 13:16:06;;;;;;;62.55;32.33;;;;;;;;;;5063051;28;20039;-79
2022/11/27 13:18:51;;;;;;;54.67;28.25;;;;;;;;;;5040413;28;20174;-79
2022/11/27 13:21:28;;;;;;;45.50;23.40;;;;;;;;;;5041756;28;20035;-78
2022/11/27 13:23:53;;;;;;;49.55;25.50;;;;;;;;;;5040773;28;20516;-79
2022/11/27 13:26:40;;;;;;;51.97;25.77;;;;;;;;;;5023339;28;20037;-78
2022/11/27 13:29:31;;;;;;;48.83;24.55;;;;;;;;;;5073627;28;20182;-78
2022/11/27 13:31:58;;;;;;;48.15;24.33;;;;;;;;;;5042469;28;20637;-79
2022/11/27 13:34:25;;;;;;;47.33;24.58;;;;;;;;;;5023683;28;20447;-79
2022/11/27 13:36:59;;;;;;;48.80;25.33;;;;;;;;;;5040181;28;20114;-79
2022/11/27 13:39:30;;;;;;;53.15;25.17;;;;;;;;;;5039706;28;20178;-79
2022/11/27 13:41:59;;;;;;;;;;;;;;;;;;5040250;28;20103;-79
2022/11/27 13:44:25;;;;;;;49.03;24.35;;;;;;;;;;5057688;28;19912;-78
2022/11/27 13:46:55;;;;;;;42.60;22.67;;;;;;;;;;5024710;28;20129;-79
2022/11/27 13:49:31;;;;;;;45.40;23.50;;;;;;;;;;5056750;28;20064;-79
2022/11/27 13:52:08;;;;;;;49.25;24.08;;;;;;;;;;5023239;28;20396;-78
2022/11/27 13:54:33;;;;;;;46.88;23.83;;;;;;;;;;5055297;28;20035;-79
2022/11/27 13:57:30;;;;;;;46.90;23.67;;;;;;;;;;5055907;28;20029;-79
2022/11/27 14:00:07;;;;;;;56.67;27.65;;;;;;;;;;5043996;28;20036;-79
2022/11/27 14:02:47;;;;;;;54.05;27.58;;;;;;;;;;5039515;28;20028;-78
2022/11/27 14:05:15;;;;;;;50.05;26.77;;;;;;;;;;5056954;28;20112;-78
2022/11/27 14:07:45;;;;;;;50.45;25.05;;;;;;;;;;5056636;28;20036;-79
2022/11/27 14:10:12;;;;;;;;;;;;;;;;;;5039827;28;20020;-78
2022/11/27 14:12:38;;;;;;;45.05;23.35;;;;;;;;;;5039468;28;19962;-79
2022/11/27 14:15:07;;;;;;;50.47;25.10;;;;;;;;;;5023014;28;20449;-79
2022/11/27 14:17:37;;;;;;;51.67;25.35;;;;;;;;;;5056352;28;20089;-79
2022/11/27 14:20:18;;;;;;;50.38;25.98;;;;;;;;;;5055953;28;20028;-79
2022/11/27 14:22:53;;;;;;;48.00;25.42;;;;;;;;;;5039234;28;20127;-78
2022/11/27 14:25:23;;;;;;;54.85;25.23;;;;;;;;;;5058414;28;20029;-79
2022/11/27 14:27:56;;;;;;;51.92;26.15;;;;;;;;;;5041538;28;20105;-79
2022/11/27 14:30:26;;;;;;;49.88;25.77;;;;;;;;;;5023911;28;20036;-78
2022/11/27 14:32:52;;;;;;;50.95;25.80;;;;;;;;;;5039583;28;20036;-79
2022/11/27 14:35:22;;;;;;;56.13;27.95;;;;;;;;;;5073477;28;20036;-79